DLH98 EDDF-EDDM
Flight info
| Callsign | DLH98 |
|---|---|
| Flight time | N/A |
| Altitude | 23000 |
| Route | CINDY8S/18 CINDY Z74 HAREM T104 ROKIL ROKIL1B |
| Aircraft | A321/M-SDE3FGHIRWY/LB1 |
Departure
| Time | 2026-05-07 19:38 |
|---|---|
| Airport | Frankfurt Main Airport (EDDF) |
Arrival
| Time | N/A |
|---|---|
| Airport | Munich Airport (EDDM) |
| Time | Latitude | Longitude | Altitude | Speed | Heading |
|---|---|---|---|---|---|
| 2026-05-07 19:20 | 50.04467 | 8.56422 | 357 ft | 0 kts | 155° |
| 2026-05-07 19:29 | 50.04485 | 8.56410 | 362 ft | 4 kts | 166° |
| 2026-05-07 19:29 | 50.04511 | 8.56407 | 360 ft | 4 kts | 194° |
| 2026-05-07 19:29 | 50.04534 | 8.56424 | 361 ft | 4 kts | 222° |
| 2026-05-07 19:29 | 50.04544 | 8.56438 | 363 ft | 1 kts | 229° |
| 2026-05-07 19:31 | 50.04538 | 8.56428 | 360 ft | 8 kts | 229° |
| 2026-05-07 19:32 | 50.04493 | 8.56288 | 358 ft | 16 kts | 250° |
| 2026-05-07 19:32 | 50.04466 | 8.56156 | 360 ft | 11 kts | 249° |
| 2026-05-07 19:32 | 50.04426 | 8.56046 | 359 ft | 13 kts | 219° |
| 2026-05-07 19:32 | 50.04332 | 8.56063 | 355 ft | 14 kts | 158° |
| 2026-05-07 19:33 | 50.04253 | 8.55996 | 356 ft | 15 kts | 245° |
| 2026-05-07 19:33 | 50.04218 | 8.55843 | 354 ft | 16 kts | 252° |
| 2026-05-07 19:33 | 50.04180 | 8.55688 | 362 ft | 15 kts | 249° |
| 2026-05-07 19:33 | 50.04144 | 8.55542 | 360 ft | 15 kts | 249° |
| 2026-05-07 19:34 | 50.04103 | 8.55370 | 360 ft | 18 kts | 250° |
| 2026-05-07 19:34 | 50.04058 | 8.55182 | 360 ft | 20 kts | 249° |
| 2026-05-07 19:34 | 50.04006 | 8.54965 | 366 ft | 23 kts | 251° |
| 2026-05-07 19:34 | 50.03946 | 8.54717 | 360 ft | 27 kts | 252° |
| 2026-05-07 19:35 | 50.03882 | 8.54434 | 360 ft | 29 kts | 245° |
| 2026-05-07 19:35 | 50.03787 | 8.54164 | 365 ft | 28 kts | 244° |
| 2026-05-07 19:35 | 50.03717 | 8.53876 | 366 ft | 29 kts | 250° |
| 2026-05-07 19:35 | 50.03643 | 8.53585 | 363 ft | 21 kts | 248° |
| 2026-05-07 19:36 | 50.03593 | 8.53377 | 365 ft | 21 kts | 250° |
| 2026-05-07 19:36 | 50.03544 | 8.53162 | 369 ft | 21 kts | 249° |
| 2026-05-07 19:36 | 50.03492 | 8.52953 | 369 ft | 20 kts | 249° |
| 2026-05-07 19:36 | 50.03448 | 8.52782 | 378 ft | 15 kts | 248° |
| 2026-05-07 19:37 | 50.03401 | 8.52640 | 379 ft | 16 kts | 227° |
| 2026-05-07 19:37 | 50.03287 | 8.52595 | 374 ft | 19 kts | 178° |
| 2026-05-07 19:37 | 50.03112 | 8.52600 | 368 ft | 45 kts | 179° |
| 2026-05-07 19:37 | 50.02526 | 8.52612 | 370 ft | 120 kts | 180° |
| 2026-05-07 19:38 | 50.01483 | 8.52634 | 380 ft | 174 kts | 176° |
| 2026-05-07 19:38 | 50.00245 | 8.52650 | 971 ft | 181 kts | 178° |
| 2026-05-07 19:38 | 49.98973 | 8.52670 | 1777 ft | 183 kts | 177° |
| 2026-05-07 19:38 | 49.97667 | 8.52795 | 2243 ft | 197 kts | 166° |
| 2026-05-07 19:39 | 49.96427 | 8.53756 | 2632 ft | 209 kts | 137° |
| 2026-05-07 19:39 | 49.95543 | 8.55658 | 2955 ft | 226 kts | 116° |
| 2026-05-07 19:39 | 49.94776 | 8.57838 | 3633 ft | 232 kts | 117° |
| 2026-05-07 19:39 | 49.94133 | 8.60137 | 4412 ft | 235 kts | 101° |
| 2026-05-07 19:40 | 49.93951 | 8.62764 | 4817 ft | 257 kts | 92° |
| 2026-05-07 19:40 | 49.93841 | 8.65611 | 5374 ft | 269 kts | 94° |
| 2026-05-07 19:40 | 49.93375 | 8.68460 | 6092 ft | 276 kts | 114° |
| 2026-05-07 19:40 | 49.92306 | 8.70948 | 6834 ft | 281 kts | 134° |
| 2026-05-07 19:41 | 49.90779 | 8.72847 | 7555 ft | 283 kts | 146° |
| 2026-05-07 19:41 | 49.89191 | 8.74689 | 8317 ft | 286 kts | 138° |
| 2026-05-07 19:41 | 49.87882 | 8.77031 | 9055 ft | 290 kts | 123° |
| 2026-05-07 19:41 | 49.86874 | 8.79760 | 9800 ft | 293 kts | 119° |
| 2026-05-07 19:42 | 49.85869 | 8.82562 | 10347 ft | 304 kts | 119° |
| 2026-05-07 19:42 | 49.84801 | 8.85530 | 10492 ft | 327 kts | 120° |
| 2026-05-07 19:42 | 49.83654 | 8.88710 | 10639 ft | 348 kts | 120° |
| 2026-05-07 19:42 | 49.82455 | 8.92025 | 11075 ft | 357 kts | 120° |
| 2026-05-07 19:43 | 49.81247 | 8.95358 | 11666 ft | 361 kts | 120° |
| 2026-05-07 19:43 | 49.80011 | 8.98757 | 12294 ft | 364 kts | 120° |
| 2026-05-07 19:43 | 49.78761 | 9.02187 | 12924 ft | 367 kts | 120° |